sensor_id;sensor_type;location;lat;lon;timestamp;P1;durP1;ratioP1;P2;durP2;ratioP2
66380;SDS011;53177;52.648;1.214;2024-01-15T00:01:16;4.67;;;1.07;;
66380;SDS011;53177;52.648;1.214;2024-01-15T00:03:42;4.78;;;0.90;;
66380;SDS011;53177;52.648;1.214;2024-01-15T00:06:07;5.80;;;1.17;;
66380;SDS011;53177;52.648;1.214;2024-01-15T00:08:33;5.50;;;1.30;;
66380;SDS011;53177;52.648;1.214;2024-01-15T00:10:58;6.97;;;1.17;;
66380;SDS011;53177;52.648;1.214;2024-01-15T00:13:23;4.30;;;1.10;;
66380;SDS011;53177;52.648;1.214;2024-01-15T00:15:49;4.82;;;1.10;;
66380;SDS011;53177;52.648;1.214;2024-01-15T00:18:14;4.80;;;0.90;;
66380;SDS011;53177;52.648;1.214;2024-01-15T00:20:40;6.03;;;1.27;;
66380;SDS011;53177;52.648;1.214;2024-01-15T00:23:05;3.97;;;0.90;;
66380;SDS011;53177;52.648;1.214;2024-01-15T00:25:31;4.93;;;1.00;;
66380;SDS011;53177;52.648;1.214;2024-01-15T00:27:56;4.85;;;0.95;;
66380;SDS011;53177;52.648;1.214;2024-01-15T00:30:21;7.37;;;1.37;;
66380;SDS011;53177;52.648;1.214;2024-01-15T00:32:47;5.33;;;1.50;;
66380;SDS011;53177;52.648;1.214;2024-01-15T00:35:12;3.97;;;0.90;;
66380;SDS011;53177;52.648;1.214;2024-01-15T00:37:38;5.45;;;1.30;;
66380;SDS011;53177;52.648;1.214;2024-01-15T00:40:04;4.28;;;1.00;;
66380;SDS011;53177;52.648;1.214;2024-01-15T00:42:30;6.43;;;1.30;;
66380;SDS011;53177;52.648;1.214;2024-01-15T00:44:56;4.50;;;0.90;;
66380;SDS011;53177;52.648;1.214;2024-01-15T00:47:21;7.43;;;1.30;;
66380;SDS011;53177;52.648;1.214;2024-01-15T00:49:47;5.43;;;1.07;;
66380;SDS011;53177;52.648;1.214;2024-01-15T00:52:12;4.43;;;1.20;;
66380;SDS011;53177;52.648;1.214;2024-01-15T00:54:38;4.10;;;1.00;;
66380;SDS011;53177;52.648;1.214;2024-01-15T00:57:05;4.22;;;1.02;;
66380;SDS011;53177;52.648;1.214;2024-01-15T00:59:30;4.20;;;1.30;;
66380;SDS011;53177;52.648;1.214;2024-01-15T01:01:55;5.38;;;1.00;;
66380;SDS011;53177;52.648;1.214;2024-01-15T01:04:21;4.83;;;1.20;;
66380;SDS011;53177;52.648;1.214;2024-01-15T01:06:46;7.23;;;1.30;;
66380;SDS011;53177;52.648;1.214;2024-01-15T01:09:12;5.90;;;1.27;;
66380;SDS011;53177;52.648;1.214;2024-01-15T01:11:37;4.40;;;1.10;;
66380;SDS011;53177;52.648;1.214;2024-01-15T01:14:03;5.47;;;1.40;;
66380;SDS011;53177;52.648;1.214;2024-01-15T01:16:28;8.80;;;1.10;;
66380;SDS011;53177;52.648;1.214;2024-01-15T01:18:55;5.88;;;1.30;;
66380;SDS011;53177;52.648;1.214;2024-01-15T01:21:20;4.60;;;1.00;;
66380;SDS011;53177;52.648;1.214;2024-01-15T01:23:45;4.77;;;1.00;;
66380;SDS011;53177;52.648;1.214;2024-01-15T01:26:14;6.43;;;1.10;;
66380;SDS011;53177;52.648;1.214;2024-01-15T01:28:40;6.97;;;1.10;;
66380;SDS011;53177;52.648;1.214;2024-01-15T01:31:06;4.97;;;1.05;;
66380;SDS011;53177;52.648;1.214;2024-01-15T01:33:33;5.57;;;0.90;;
66380;SDS011;53177;52.648;1.214;2024-01-15T01:35:58;4.35;;;0.93;;
66380;SDS011;53177;52.648;1.214;2024-01-15T01:38:24;4.30;;;0.90;;
66380;SDS011;53177;52.648;1.214;2024-01-15T01:40:49;5.07;;;0.90;;
66380;SDS011;53177;52.648;1.214;2024-01-15T01:43:15;3.83;;;0.80;;
66380;SDS011;53177;52.648;1.214;2024-01-15T01:45:40;6.43;;;1.30;;
66380;SDS011;53177;52.648;1.214;2024-01-15T01:48:06;5.33;;;0.90;;
66380;SDS011;53177;52.648;1.214;2024-01-15T01:50:34;7.70;;;1.10;;
66380;SDS011;53177;52.648;1.214;2024-01-15T01:53:00;3.97;;;0.90;;
66380;SDS011;53177;52.648;1.214;2024-01-15T01:55:30;4.85;;;1.15;;
66380;SDS011;53177;52.648;1.214;2024-01-15T01:57:58;5.90;;;1.00;;
66380;SDS011;53177;52.648;1.214;2024-01-15T02:00:24;5.30;;;1.13;;
66380;SDS011;53177;52.648;1.214;2024-01-15T02:02:50;4.00;;;0.98;;
66380;SDS011;53177;52.648;1.214;2024-01-15T02:05:18;6.67;;;1.00;;
66380;SDS011;53177;52.648;1.214;2024-01-15T02:07:44;3.80;;;0.70;;
66380;SDS011;53177;52.648;1.214;2024-01-15T02:10:10;4.35;;;0.98;;
66380;SDS011;53177;52.648;1.214;2024-01-15T02:12:36;2.90;;;0.60;;
66380;SDS011;53177;52.648;1.214;2024-01-15T02:15:02;4.97;;;0.80;;
66380;SDS011;53177;52.648;1.214;2024-01-15T02:17:28;4.07;;;0.55;;
66380;SDS011;53177;52.648;1.214;2024-01-15T02:19:53;3.90;;;0.67;;
66380;SDS011;53177;52.648;1.214;2024-01-15T02:22:18;4.53;;;0.70;;
66380;SDS011;53177;52.648;1.214;2024-01-15T02:24:44;3.37;;;0.70;;
66380;SDS011;53177;52.648;1.214;2024-01-15T02:27:09;4.00;;;1.05;;
66380;SDS011;53177;52.648;1.214;2024-01-15T02:29:35;3.77;;;0.80;;
66380;SDS011;53177;52.648;1.214;2024-01-15T02:32:04;4.73;;;0.80;;
66380;SDS011;53177;52.648;1.214;2024-01-15T02:34:33;4.75;;;0.90;;
66380;SDS011;53177;52.648;1.214;2024-01-15T02:36:58;3.88;;;0.90;;
66380;SDS011;53177;52.648;1.214;2024-01-15T02:39:24;5.37;;;0.73;;
66380;SDS011;53177;52.648;1.214;2024-01-15T02:41:54;2.45;;;0.50;;
66380;SDS011;53177;52.648;1.214;2024-01-15T02:44:21;5.65;;;1.20;;
66380;SDS011;53177;52.648;1.214;2024-01-15T02:46:46;3.70;;;0.80;;
66380;SDS011;53177;52.648;1.214;2024-01-15T02:49:12;5.27;;;1.00;;
66380;SDS011;53177;52.648;1.214;2024-01-15T02:51:37;3.08;;;0.63;;
66380;SDS011;53177;52.648;1.214;2024-01-15T02:54:02;3.75;;;0.90;;
66380;SDS011;53177;52.648;1.214;2024-01-15T02:56:28;7.47;;;1.17;;
66380;SDS011;53177;52.648;1.214;2024-01-15T02:58:53;4.53;;;0.90;;
66380;SDS011;53177;52.648;1.214;2024-01-15T03:01:19;4.00;;;0.80;;
66380;SDS011;53177;52.648;1.214;2024-01-15T03:03:45;6.40;;;1.30;;
66380;SDS011;53177;52.648;1.214;2024-01-15T03:06:10;5.53;;;1.03;;
66380;SDS011;53177;52.648;1.214;2024-01-15T03:08:36;5.63;;;0.90;;
66380;SDS011;53177;52.648;1.214;2024-01-15T03:11:01;5.25;;;1.08;;
66380;SDS011;53177;52.648;1.214;2024-01-15T03:13:27;5.20;;;1.20;;
66380;SDS011;53177;52.648;1.214;2024-01-15T03:15:52;5.27;;;1.33;;
66380;SDS011;53177;52.648;1.214;2024-01-15T03:18:18;6.57;;;1.33;;
66380;SDS011;53177;52.648;1.214;2024-01-15T03:20:43;5.13;;;1.17;;
66380;SDS011;53177;52.648;1.214;2024-01-15T03:23:08;7.40;;;1.25;;
66380;SDS011;53177;52.648;1.214;2024-01-15T03:25:34;4.47;;;1.07;;
66380;SDS011;53177;52.648;1.214;2024-01-15T03:27:59;7.87;;;1.20;;
66380;SDS011;53177;52.648;1.214;2024-01-15T03:30:25;4.83;;;1.13;;
66380;SDS011;53177;52.648;1.214;2024-01-15T03:32:50;4.65;;;1.10;;
66380;SDS011;53177;52.648;1.214;2024-01-15T03:35:16;4.70;;;1.10;;
66380;SDS011;53177;52.648;1.214;2024-01-15T03:37:41;5.20;;;1.00;;
66380;SDS011;53177;52.648;1.214;2024-01-15T03:40:07;5.35;;;1.48;;
66380;SDS011;53177;52.648;1.214;2024-01-15T03:42:33;7.23;;;1.40;;
66380;SDS011;53177;52.648;1.214;2024-01-15T03:44:59;3.95;;;0.90;;
66380;SDS011;53177;52.648;1.214;2024-01-15T03:47:24;4.70;;;1.10;;
66380;SDS011;53177;52.648;1.214;2024-01-15T03:49:51;5.15;;;1.05;;
66380;SDS011;53177;52.648;1.214;2024-01-15T03:52:16;4.40;;;1.00;;
66380;SDS011;53177;52.648;1.214;2024-01-15T03:54:42;3.70;;;0.90;;
66380;SDS011;53177;52.648;1.214;2024-01-15T03:57:07;5.40;;;1.10;;
66380;SDS011;53177;52.648;1.214;2024-01-15T03:59:33;5.33;;;1.10;;
66380;SDS011;53177;52.648;1.214;2024-01-15T04:02:00;4.63;;;1.00;;
66380;SDS011;53177;52.648;1.214;2024-01-15T04:04:26;5.25;;;1.20;;
66380;SDS011;53177;52.648;1.214;2024-01-15T04:06:51;7.30;;;1.40;;
66380;SDS011;53177;52.648;1.214;2024-01-15T04:09:17;6.37;;;1.13;;
66380;SDS011;53177;52.648;1.214;2024-01-15T04:11:42;4.40;;;1.03;;
66380;SDS011;53177;52.648;1.214;2024-01-15T04:14:07;4.40;;;1.00;;
66380;SDS011;53177;52.648;1.214;2024-01-15T04:16:33;3.90;;;0.80;;
66380;SDS011;53177;52.648;1.214;2024-01-15T04:18:58;5.00;;;0.90;;
66380;SDS011;53177;52.648;1.214;2024-01-15T04:21:24;4.85;;;1.10;;
66380;SDS011;53177;52.648;1.214;2024-01-15T04:23:49;3.70;;;0.90;;
66380;SDS011;53177;52.648;1.214;2024-01-15T04:26:15;4.43;;;0.83;;
66380;SDS011;53177;52.648;1.214;2024-01-15T04:28:40;4.37;;;0.87;;
66380;SDS011;53177;52.648;1.214;2024-01-15T04:31:05;5.43;;;1.00;;
66380;SDS011;53177;52.648;1.214;2024-01-15T04:33:31;3.75;;;0.70;;
66380;SDS011;53177;52.648;1.214;2024-01-15T04:35:56;5.30;;;0.70;;
66380;SDS011;53177;52.648;1.214;2024-01-15T04:38:22;3.93;;;0.70;;
66380;SDS011;53177;52.648;1.214;2024-01-15T04:40:47;4.70;;;1.00;;
66380;SDS011;53177;52.648;1.214;2024-01-15T04:43:13;4.20;;;0.73;;
66380;SDS011;53177;52.648;1.214;2024-01-15T04:45:38;5.00;;;0.80;;
66380;SDS011;53177;52.648;1.214;2024-01-15T04:48:04;4.37;;;0.50;;
66380;SDS011;53177;52.648;1.214;2024-01-15T04:50:30;5.50;;;0.88;;
66380;SDS011;53177;52.648;1.214;2024-01-15T04:52:55;3.63;;;0.60;;
66380;SDS011;53177;52.648;1.214;2024-01-15T04:55:21;4.27;;;0.80;;
66380;SDS011;53177;52.648;1.214;2024-01-15T04:57:46;5.73;;;0.90;;
66380;SDS011;53177;52.648;1.214;2024-01-15T05:00:12;3.45;;;0.85;;
66380;SDS011;53177;52.648;1.214;2024-01-15T05:02:38;4.27;;;0.70;;
66380;SDS011;53177;52.648;1.214;2024-01-15T05:05:03;4.53;;;0.80;;
66380;SDS011;53177;52.648;1.214;2024-01-15T05:07:30;4.63;;;0.70;;
66380;SDS011;53177;52.648;1.214;2024-01-15T05:09:59;3.38;;;0.70;;
66380;SDS011;53177;52.648;1.214;2024-01-15T05:12:27;3.17;;;0.63;;
66380;SDS011;53177;52.648;1.214;2024-01-15T05:14:53;6.37;;;0.90;;
66380;SDS011;53177;52.648;1.214;2024-01-15T05:17:19;4.80;;;0.80;;
66380;SDS011;53177;52.648;1.214;2024-01-15T05:19:44;5.13;;;0.90;;
66380;SDS011;53177;52.648;1.214;2024-01-15T05:22:10;3.83;;;0.70;;
66380;SDS011;53177;52.648;1.214;2024-01-15T05:24:36;4.38;;;0.93;;
66380;SDS011;53177;52.648;1.214;2024-01-15T05:27:01;4.13;;;0.77;;
66380;SDS011;53177;52.648;1.214;2024-01-15T05:29:27;6.55;;;0.95;;
66380;SDS011;53177;52.648;1.214;2024-01-15T05:31:53;5.87;;;0.83;;
66380;SDS011;53177;52.648;1.214;2024-01-15T05:34:18;4.72;;;0.60;;
66380;SDS011;53177;52.648;1.214;2024-01-15T05:36:44;3.72;;;0.90;;
66380;SDS011;53177;52.648;1.214;2024-01-15T05:39:12;4.83;;;0.80;;
66380;SDS011;53177;52.648;1.214;2024-01-15T05:41:38;2.92;;;0.70;;
66380;SDS011;53177;52.648;1.214;2024-01-15T05:44:07;5.40;;;0.85;;
66380;SDS011;53177;52.648;1.214;2024-01-15T05:46:42;4.53;;;0.80;;
66380;SDS011;53177;52.648;1.214;2024-01-15T05:49:08;4.20;;;0.75;;
66380;SDS011;53177;52.648;1.214;2024-01-15T05:51:33;5.17;;;0.93;;
66380;SDS011;53177;52.648;1.214;2024-01-15T05:53:59;5.93;;;0.83;;
66380;SDS011;53177;52.648;1.214;2024-01-15T05:56:24;6.65;;;0.90;;
66380;SDS011;53177;52.648;1.214;2024-01-15T05:58:50;4.78;;;0.80;;
66380;SDS011;53177;52.648;1.214;2024-01-15T06:01:15;3.70;;;0.57;;
66380;SDS011;53177;52.648;1.214;2024-01-15T06:03:41;4.63;;;0.87;;
66380;SDS011;53177;52.648;1.214;2024-01-15T06:06:08;4.88;;;0.63;;
66380;SDS011;53177;52.648;1.214;2024-01-15T06:08:33;2.65;;;0.52;;
66380;SDS011;53177;52.648;1.214;2024-01-15T06:10:59;3.00;;;0.60;;
66380;SDS011;53177;52.648;1.214;2024-01-15T06:13:25;5.03;;;0.88;;
66380;SDS011;53177;52.648;1.214;2024-01-15T06:15:51;3.23;;;0.60;;
66380;SDS011;53177;52.648;1.214;2024-01-15T06:18:16;3.53;;;0.60;;
66380;SDS011;53177;52.648;1.214;2024-01-15T06:20:42;6.15;;;0.70;;
66380;SDS011;53177;52.648;1.214;2024-01-15T06:23:08;4.27;;;0.83;;
66380;SDS011;53177;52.648;1.214;2024-01-15T06:25:33;4.17;;;0.80;;
66380;SDS011;53177;52.648;1.214;2024-01-15T06:27:59;2.95;;;0.50;;
66380;SDS011;53177;52.648;1.214;2024-01-15T06:30:24;4.83;;;0.60;;
66380;SDS011;53177;52.648;1.214;2024-01-15T06:32:50;3.97;;;0.60;;
66380;SDS011;53177;52.648;1.214;2024-01-15T06:35:16;4.13;;;0.50;;
66380;SDS011;53177;52.648;1.214;2024-01-15T06:37:41;5.80;;;0.53;;
66380;SDS011;53177;52.648;1.214;2024-01-15T06:40:07;4.15;;;0.50;;
66380;SDS011;53177;52.648;1.214;2024-01-15T06:42:33;3.33;;;0.50;;
66380;SDS011;53177;52.648;1.214;2024-01-15T06:44:58;3.13;;;0.45;;
66380;SDS011;53177;52.648;1.214;2024-01-15T06:47:24;4.30;;;0.70;;
66380;SDS011;53177;52.648;1.214;2024-01-15T06:49:49;3.13;;;0.40;;
66380;SDS011;53177;52.648;1.214;2024-01-15T06:52:17;2.95;;;0.70;;
66380;SDS011;53177;52.648;1.214;2024-01-15T06:54:43;3.83;;;0.52;;
66380;SDS011;53177;52.648;1.214;2024-01-15T06:57:08;3.23;;;0.60;;
66380;SDS011;53177;52.648;1.214;2024-01-15T06:59:34;4.97;;;0.50;;
66380;SDS011;53177;52.648;1.214;2024-01-15T07:02:02;4.68;;;0.60;;
66380;SDS011;53177;52.648;1.214;2024-01-15T07:04:28;2.87;;;0.47;;
66380;SDS011;53177;52.648;1.214;2024-01-15T07:06:53;4.47;;;0.70;;
66380;SDS011;53177;52.648;1.214;2024-01-15T07:09:19;4.72;;;0.80;;
66380;SDS011;53177;52.648;1.214;2024-01-15T07:11:46;2.92;;;0.40;;
66380;SDS011;53177;52.648;1.214;2024-01-15T07:14:12;2.53;;;0.50;;
66380;SDS011;53177;52.648;1.214;2024-01-15T07:16:38;3.50;;;0.88;;
66380;SDS011;53177;52.648;1.214;2024-01-15T07:19:04;1.50;;;0.30;;
66380;SDS011;53177;52.648;1.214;2024-01-15T07:21:29;2.80;;;0.50;;
66380;SDS011;53177;52.648;1.214;2024-01-15T07:23:55;4.00;;;0.60;;
66380;SDS011;53177;52.648;1.214;2024-01-15T07:26:21;5.13;;;0.80;;
66380;SDS011;53177;52.648;1.214;2024-01-15T07:28:46;4.33;;;0.60;;
66380;SDS011;53177;52.648;1.214;2024-01-15T07:31:12;2.53;;;0.30;;
66380;SDS011;53177;52.648;1.214;2024-01-15T07:33:37;3.03;;;0.50;;
66380;SDS011;53177;52.648;1.214;2024-01-15T07:36:03;4.30;;;0.70;;
66380;SDS011;53177;52.648;1.214;2024-01-15T07:38:29;4.40;;;0.70;;
66380;SDS011;53177;52.648;1.214;2024-01-15T07:40:54;2.85;;;0.50;;
66380;SDS011;53177;52.648;1.214;2024-01-15T07:43:20;3.92;;;0.60;;
66380;SDS011;53177;52.648;1.214;2024-01-15T07:45:46;3.30;;;0.40;;
66380;SDS011;53177;52.648;1.214;2024-01-15T07:48:11;5.80;;;0.50;;
66380;SDS011;53177;52.648;1.214;2024-01-15T07:50:37;3.77;;;0.40;;
66380;SDS011;53177;52.648;1.214;2024-01-15T07:53:03;4.68;;;0.50;;
66380;SDS011;53177;52.648;1.214;2024-01-15T07:55:29;3.65;;;0.57;;
66380;SDS011;53177;52.648;1.214;2024-01-15T07:57:55;2.67;;;0.50;;
66380;SDS011;53177;52.648;1.214;2024-01-15T08:00:23;5.47;;;0.60;;
66380;SDS011;53177;52.648;1.214;2024-01-15T08:02:49;3.77;;;0.53;;
66380;SDS011;53177;52.648;1.214;2024-01-15T08:05:16;5.75;;;0.63;;
66380;SDS011;53177;52.648;1.214;2024-01-15T08:07:42;3.13;;;0.60;;
66380;SDS011;53177;52.648;1.214;2024-01-15T08:10:07;5.50;;;0.63;;
66380;SDS011;53177;52.648;1.214;2024-01-15T08:12:33;4.53;;;0.60;;
66380;SDS011;53177;52.648;1.214;2024-01-15T08:14:58;5.30;;;0.50;;
66380;SDS011;53177;52.648;1.214;2024-01-15T08:17:24;6.93;;;0.70;;
66380;SDS011;53177;52.648;1.214;2024-01-15T08:19:53;3.08;;;0.50;;
66380;SDS011;53177;52.648;1.214;2024-01-15T08:22:19;7.15;;;0.60;;
66380;SDS011;53177;52.648;1.214;2024-01-15T08:24:45;3.90;;;0.63;;
66380;SDS011;53177;52.648;1.214;2024-01-15T08:27:11;7.05;;;0.80;;
66380;SDS011;53177;52.648;1.214;2024-01-15T08:29:36;5.53;;;0.80;;
66380;SDS011;53177;52.648;1.214;2024-01-15T08:32:02;3.17;;;0.63;;
66380;SDS011;53177;52.648;1.214;2024-01-15T08:34:28;4.13;;;0.80;;
66380;SDS011;53177;52.648;1.214;2024-01-15T08:36:54;7.10;;;0.87;;
66380;SDS011;53177;52.648;1.214;2024-01-15T08:39:19;3.90;;;0.60;;
66380;SDS011;53177;52.648;1.214;2024-01-15T08:41:45;2.70;;;0.60;;
66380;SDS011;53177;52.648;1.214;2024-01-15T08:44:14;4.60;;;0.98;;
66380;SDS011;53177;52.648;1.214;2024-01-15T08:46:39;3.30;;;0.43;;
66380;SDS011;53177;52.648;1.214;2024-01-15T08:49:05;5.97;;;0.70;;
66380;SDS011;53177;52.648;1.214;2024-01-15T08:51:31;5.82;;;0.50;;
66380;SDS011;53177;52.648;1.214;2024-01-15T08:53:56;4.47;;;0.70;;
66380;SDS011;53177;52.648;1.214;2024-01-15T08:56:23;4.10;;;0.70;;
66380;SDS011;53177;52.648;1.214;2024-01-15T08:58:48;5.60;;;0.80;;
66380;SDS011;53177;52.648;1.214;2024-01-15T09:01:14;5.10;;;0.60;;
66380;SDS011;53177;52.648;1.214;2024-01-15T09:03:40;4.32;;;0.68;;
66380;SDS011;53177;52.648;1.214;2024-01-15T09:06:08;4.70;;;0.70;;
66380;SDS011;53177;52.648;1.214;2024-01-15T09:08:34;3.85;;;0.70;;
66380;SDS011;53177;52.648;1.214;2024-01-15T09:11:00;3.43;;;0.60;;
66380;SDS011;53177;52.648;1.214;2024-01-15T09:13:27;5.63;;;0.88;;
66380;SDS011;53177;52.648;1.214;2024-01-15T09:15:53;3.87;;;0.70;;
66380;SDS011;53177;52.648;1.214;2024-01-15T09:18:18;4.65;;;0.70;;
66380;SDS011;53177;52.648;1.214;2024-01-15T09:20:44;4.97;;;0.97;;
66380;SDS011;53177;52.648;1.214;2024-01-15T09:23:09;5.80;;;1.03;;
66380;SDS011;53177;52.648;1.214;2024-01-15T09:25:35;8.87;;;1.50;;
66380;SDS011;53177;52.648;1.214;2024-01-15T09:28:00;5.60;;;1.33;;
66380;SDS011;53177;52.648;1.214;2024-01-15T09:30:26;5.50;;;1.10;;
66380;SDS011;53177;52.648;1.214;2024-01-15T09:32:51;5.77;;;1.03;;
66380;SDS011;53177;52.648;1.214;2024-01-15T09:35:16;5.90;;;1.10;;
66380;SDS011;53177;52.648;1.214;2024-01-15T09:37:42;2.90;;;0.77;;
66380;SDS011;53177;52.648;1.214;2024-01-15T09:40:08;4.97;;;0.70;;
66380;SDS011;53177;52.648;1.214;2024-01-15T09:42:38;5.57;;;1.10;;
66380;SDS011;53177;52.648;1.214;2024-01-15T09:45:05;5.10;;;1.23;;
66380;SDS011;53177;52.648;1.214;2024-01-15T09:47:31;5.32;;;0.82;;
66380;SDS011;53177;52.648;1.214;2024-01-15T09:49:57;6.75;;;0.90;;
66380;SDS011;53177;52.648;1.214;2024-01-15T09:52:23;5.43;;;0.93;;
66380;SDS011;53177;52.648;1.214;2024-01-15T09:54:50;7.67;;;1.00;;
66380;SDS011;53177;52.648;1.214;2024-01-15T09:57:17;3.22;;;0.50;;
66380;SDS011;53177;52.648;1.214;2024-01-15T09:59:43;7.28;;;0.88;;
66380;SDS011;53177;52.648;1.214;2024-01-15T10:02:12;5.25;;;0.70;;
66380;SDS011;53177;52.648;1.214;2024-01-15T10:04:42;4.70;;;0.70;;
66380;SDS011;53177;52.648;1.214;2024-01-15T10:07:08;4.78;;;0.63;;
66380;SDS011;53177;52.648;1.214;2024-01-15T10:09:34;5.40;;;1.42;;
66380;SDS011;53177;52.648;1.214;2024-01-15T10:11:59;5.63;;;0.73;;
66380;SDS011;53177;52.648;1.214;2024-01-15T10:14:26;4.90;;;1.25;;
66380;SDS011;53177;52.648;1.214;2024-01-15T10:16:51;4.67;;;0.80;;
66380;SDS011;53177;52.648;1.214;2024-01-15T10:19:17;15.43;;;1.33;;
66380;SDS011;53177;52.648;1.214;2024-01-15T10:21:42;2.67;;;0.55;;
66380;SDS011;53177;52.648;1.214;2024-01-15T10:24:08;5.67;;;0.90;;
66380;SDS011;53177;52.648;1.214;2024-01-15T10:26:33;5.93;;;0.90;;
66380;SDS011;53177;52.648;1.214;2024-01-15T10:28:59;6.28;;;1.15;;
66380;SDS011;53177;52.648;1.214;2024-01-15T10:31:25;4.43;;;1.00;;
66380;SDS011;53177;52.648;1.214;2024-01-15T10:33:52;4.75;;;0.82;;
66380;SDS011;53177;52.648;1.214;2024-01-15T10:36:18;4.57;;;0.75;;
66380;SDS011;53177;52.648;1.214;2024-01-15T10:38:45;5.73;;;1.23;;
66380;SDS011;53177;52.648;1.214;2024-01-15T10:41:11;7.72;;;0.90;;
66380;SDS011;53177;52.648;1.214;2024-01-15T10:43:38;5.20;;;0.80;;
66380;SDS011;53177;52.648;1.214;2024-01-15T10:46:06;6.55;;;0.90;;
66380;SDS011;53177;52.648;1.214;2024-01-15T10:48:35;5.17;;;1.03;;
66380;SDS011;53177;52.648;1.214;2024-01-15T10:51:01;4.70;;;0.68;;
66380;SDS011;53177;52.648;1.214;2024-01-15T10:53:35;6.20;;;1.00;;
66380;SDS011;53177;52.648;1.214;2024-01-15T10:56:04;5.93;;;0.98;;
66380;SDS011;53177;52.648;1.214;2024-01-15T10:58:31;6.72;;;1.00;;
66380;SDS011;53177;52.648;1.214;2024-01-15T11:00:56;5.53;;;0.90;;
66380;SDS011;53177;52.648;1.214;2024-01-15T11:03:22;5.28;;;1.00;;
66380;SDS011;53177;52.648;1.214;2024-01-15T11:05:48;5.13;;;0.70;;
66380;SDS011;53177;52.648;1.214;2024-01-15T11:08:16;6.45;;;0.80;;
66380;SDS011;53177;52.648;1.214;2024-01-15T11:10:44;4.43;;;0.80;;
66380;SDS011;53177;52.648;1.214;2024-01-15T11:13:14;5.18;;;1.10;;
66380;SDS011;53177;52.648;1.214;2024-01-15T11:15:55;5.35;;;1.10;;
66380;SDS011;53177;52.648;1.214;2024-01-15T11:18:21;4.10;;;0.77;;
66380;SDS011;53177;52.648;1.214;2024-01-15T11:23:45;5.97;;;1.17;;
66380;SDS011;53177;52.648;1.214;2024-01-15T11:28:55;7.15;;;1.23;;
66380;SDS011;53177;52.648;1.214;2024-01-15T11:34:13;7.30;;;1.23;;
66380;SDS011;53177;52.648;1.214;2024-01-15T11:42:01;7.10;;;1.00;;
66380;SDS011;53177;52.648;1.214;2024-01-15T11:44:28;6.97;;;1.20;;
66380;SDS011;53177;52.648;1.214;2024-01-15T11:46:58;6.32;;;1.40;;
66380;SDS011;53177;52.648;1.214;2024-01-15T11:52:03;6.32;;;1.02;;
66380;SDS011;53177;52.648;1.214;2024-01-15T11:54:30;6.18;;;1.25;;
66380;SDS011;53177;52.648;1.214;2024-01-15T11:57:03;7.60;;;1.20;;
66380;SDS011;53177;52.648;1.214;2024-01-15T11:59:34;10.80;;;1.00;;
66380;SDS011;53177;52.648;1.214;2024-01-15T12:02:00;8.13;;;1.00;;
66380;SDS011;53177;52.648;1.214;2024-01-15T12:04:26;5.43;;;0.90;;
66380;SDS011;53177;52.648;1.214;2024-01-15T12:06:52;7.10;;;0.90;;
66380;SDS011;53177;52.648;1.214;2024-01-15T12:09:20;6.20;;;1.43;;
66380;SDS011;53177;52.648;1.214;2024-01-15T12:11:48;8.05;;;1.13;;
66380;SDS011;53177;52.648;1.214;2024-01-15T12:14:24;5.30;;;1.10;;
66380;SDS011;53177;52.648;1.214;2024-01-15T12:16:50;8.90;;;1.15;;
66380;SDS011;53177;52.648;1.214;2024-01-15T12:19:15;5.47;;;1.00;;
66380;SDS011;53177;52.648;1.214;2024-01-15T12:21:41;6.18;;;1.30;;
66380;SDS011;53177;52.648;1.214;2024-01-15T12:24:07;8.90;;;1.27;;
66380;SDS011;53177;52.648;1.214;2024-01-15T12:26:33;5.43;;;1.10;;
66380;SDS011;53177;52.648;1.214;2024-01-15T12:29:02;6.35;;;1.13;;
66380;SDS011;53177;52.648;1.214;2024-01-15T12:31:29;7.32;;;1.55;;
66380;SDS011;53177;52.648;1.214;2024-01-15T12:33:55;5.20;;;1.20;;
66380;SDS011;53177;52.648;1.214;2024-01-15T12:36:21;7.73;;;1.20;;
66380;SDS011;53177;52.648;1.214;2024-01-15T12:38:48;6.50;;;1.17;;
66380;SDS011;53177;52.648;1.214;2024-01-15T12:41:13;8.38;;;1.50;;
66380;SDS011;53177;52.648;1.214;2024-01-15T12:43:41;6.27;;;1.00;;
66380;SDS011;53177;52.648;1.214;2024-01-15T12:46:07;6.05;;;0.90;;
66380;SDS011;53177;52.648;1.214;2024-01-15T12:48:32;6.18;;;1.20;;
66380;SDS011;53177;52.648;1.214;2024-01-15T12:50:58;10.90;;;1.47;;
66380;SDS011;53177;52.648;1.214;2024-01-15T12:53:23;5.30;;;1.00;;
66380;SDS011;53177;52.648;1.214;2024-01-15T12:55:49;6.40;;;1.30;;
66380;SDS011;53177;52.648;1.214;2024-01-15T12:58:15;7.32;;;1.75;;
66380;SDS011;53177;52.648;1.214;2024-01-15T13:00:40;5.60;;;1.50;;
66380;SDS011;53177;52.648;1.214;2024-01-15T13:03:06;6.83;;;1.57;;
66380;SDS011;53177;52.648;1.214;2024-01-15T13:05:32;8.10;;;1.92;;
66380;SDS011;53177;52.648;1.214;2024-01-15T13:08:01;6.03;;;1.38;;
66380;SDS011;53177;52.648;1.214;2024-01-15T13:10:26;7.97;;;2.10;;
66380;SDS011;53177;52.648;1.214;2024-01-15T13:12:55;6.97;;;1.33;;
66380;SDS011;53177;52.648;1.214;2024-01-15T13:15:20;3.33;;;0.87;;
66380;SDS011;53177;52.648;1.214;2024-01-15T13:17:45;9.47;;;2.00;;
66380;SDS011;53177;52.648;1.214;2024-01-15T13:20:11;11.87;;;4.63;;
66380;SDS011;53177;52.648;1.214;2024-01-15T13:22:37;13.13;;;5.22;;
66380;SDS011;53177;52.648;1.214;2024-01-15T13:25:04;7.13;;;1.70;;
66380;SDS011;53177;52.648;1.214;2024-01-15T13:27:32;14.97;;;5.17;;
66380;SDS011;53177;52.648;1.214;2024-01-15T13:29:59;17.48;;;6.82;;
66380;SDS011;53177;52.648;1.214;2024-01-15T13:32:25;9.95;;;2.70;;
66380;SDS011;53177;52.648;1.214;2024-01-15T13:34:51;12.90;;;3.77;;
66380;SDS011;53177;52.648;1.214;2024-01-15T13:37:17;12.73;;;4.60;;
66380;SDS011;53177;52.648;1.214;2024-01-15T13:39:42;19.90;;;7.53;;
66380;SDS011;53177;52.648;1.214;2024-01-15T13:42:08;17.73;;;7.40;;
66380;SDS011;53177;52.648;1.214;2024-01-15T13:44:36;25.20;;;11.40;;
66380;SDS011;53177;52.648;1.214;2024-01-15T13:47:02;13.15;;;4.00;;
66380;SDS011;53177;52.648;1.214;2024-01-15T13:49:28;7.00;;;2.08;;
66380;SDS011;53177;52.648;1.214;2024-01-15T13:51:54;13.27;;;6.67;;
66380;SDS011;53177;52.648;1.214;2024-01-15T13:54:19;16.90;;;6.20;;
66380;SDS011;53177;52.648;1.214;2024-01-15T13:56:46;20.10;;;9.02;;
66380;SDS011;53177;52.648;1.214;2024-01-15T13:59:12;13.85;;;6.38;;
66380;SDS011;53177;52.648;1.214;2024-01-15T14:01:38;12.57;;;5.03;;
66380;SDS011;53177;52.648;1.214;2024-01-15T14:04:03;11.98;;;4.40;;
66380;SDS011;53177;52.648;1.214;2024-01-15T14:06:29;14.73;;;6.50;;
66380;SDS011;53177;52.648;1.214;2024-01-15T14:08:55;12.95;;;6.22;;
66380;SDS011;53177;52.648;1.214;2024-01-15T14:11:20;8.97;;;3.37;;
66380;SDS011;53177;52.648;1.214;2024-01-15T14:13:45;8.33;;;2.60;;
66380;SDS011;53177;52.648;1.214;2024-01-15T14:16:12;7.07;;;1.95;;
66380;SDS011;53177;52.648;1.214;2024-01-15T14:18:38;9.05;;;1.30;;
66380;SDS011;53177;52.648;1.214;2024-01-15T14:21:03;6.45;;;2.30;;
66380;SDS011;53177;52.648;1.214;2024-01-15T14:23:29;8.23;;;3.30;;
66380;SDS011;53177;52.648;1.214;2024-01-15T14:25:54;7.33;;;2.43;;
66380;SDS011;53177;52.648;1.214;2024-01-15T14:28:20;5.57;;;1.70;;
66380;SDS011;53177;52.648;1.214;2024-01-15T14:30:46;6.67;;;2.47;;
66380;SDS011;53177;52.648;1.214;2024-01-15T14:33:11;8.47;;;2.80;;
66380;SDS011;53177;52.648;1.214;2024-01-15T14:35:36;6.63;;;1.85;;
66380;SDS011;53177;52.648;1.214;2024-01-15T14:38:02;8.63;;;2.57;;
66380;SDS011;53177;52.648;1.214;2024-01-15T14:40:28;7.93;;;2.40;;
66380;SDS011;53177;52.648;1.214;2024-01-15T14:42:54;7.15;;;1.85;;
66380;SDS011;53177;52.648;1.214;2024-01-15T14:45:20;11.40;;;4.00;;
66380;SDS011;53177;52.648;1.214;2024-01-15T14:47:45;7.90;;;3.50;;
66380;SDS011;53177;52.648;1.214;2024-01-15T14:50:11;9.13;;;3.80;;
66380;SDS011;53177;52.648;1.214;2024-01-15T14:52:37;10.73;;;3.50;;
66380;SDS011;53177;52.648;1.214;2024-01-15T14:55:04;10.52;;;4.65;;